Terminal Aerodrome Forecast
Issued by NWS San Angelo, TX

Home | Current Version | Previous Version | Text Only | Print | Product List | Glossary On
Versions: 1 2 3 4 5 6 7 8 9 10 11 12 13 14 15 16 17
464
FTUS44 KSJT 271037 AAD
TAFSJT
TAF AMD
KSJT 271037Z 2711/2806 VRB04KT P6SM OVC004
     FM271300 22006KT P6SM BKN018
     FM271700 24013G21KT P6SM BKN250
     FM280000 18006KT P6SM BKN250=

USA.gov is the U.S. government's official web portal to all federal, state and local government web resources and services.